Time;durP1;ratioP1;P1;durP2;ratioP2;P2;SDS_P1;SDS_P2;PMS_P1;PMS_P2;Temp;Humidity;BMP_temperature;BMP_pressure;BME280_temperature;BME280_humidity;BME280_pressure;Samples;Min_cycle;Max_cycle;Signal;HPM_P1;HPM_P2
2022/09/01 00:01:50;;;;;;;15.65;9.93;;;15.80;83.10;;;;;;5054926;28;20028;-62
2022/09/01 00:04:19;;;;;;;14.38;9.65;;;15.80;83.80;;;;;;5054850;28;20025;-62
2022/09/01 00:06:45;;;;;;;15.30;9.90;;;15.70;83.20;;;;;;5056017;28;20032;-59
2022/09/01 00:09:13;;;;;;;15.63;9.80;;;15.80;84.20;;;;;;5055964;28;20066;-62
2022/09/01 00:11:42;;;;;;;15.63;10.27;;;15.70;85.00;;;;;;5054378;28;20021;-61
2022/09/01 00:14:09;;;;;;;16.38;9.90;;;15.70;85.50;;;;;;5054917;28;20029;-62
2022/09/01 00:16:35;;;;;;;16.13;10.50;;;15.60;85.80;;;;;;5054429;28;20036;-62
2022/09/01 00:19:02;;;;;;;15.10;10.25;;;15.60;86.30;;;;;;5054206;28;20473;-61
2022/09/01 00:21:33;;;;;;;16.83;10.20;;;15.60;87.00;;;;;;5053114;28;20401;-62
2022/09/01 00:23:59;;;;;;;14.63;10.07;;;15.60;87.00;;;;;;5053095;28;20408;-62
2022/09/01 00:26:26;;;;;;;16.63;9.60;;;15.60;88.20;;;;;;5054287;28;20052;-62
2022/09/01 00:28:51;;;;;;;15.73;9.75;;;15.50;88.30;;;;;;5052989;28;20021;-62
2022/09/01 00:31:18;;;;;;;14.63;9.57;;;15.60;88.50;;;;;;5054200;28;20036;-60
2022/09/01 00:33:45;;;;;;;15.25;9.68;;;15.60;88.80;;;;;;5054189;28;20060;-60
2022/09/01 00:36:11;;;;;;;16.33;10.23;;;15.50;89.50;;;;;;5053265;28;20032;-62
2022/09/01 00:38:37;;;;;;;16.15;10.18;;;15.50;89.40;;;;;;5055098;28;20025;-61
2022/09/01 00:41:04;;;;;;;16.42;10.00;;;15.50;89.20;;;;;;5053625;28;20151;-63
2022/09/01 00:43:40;;;;;;;18.40;10.10;;;15.50;89.70;;;;;;5053955;28;20043;-57
2022/09/01 00:46:11;;;;;;;15.70;9.70;;;15.50;90.00;;;;;;5054004;28;20064;-60
2022/09/01 00:48:38;;;;;;;15.20;9.90;;;15.50;90.10;;;;;;5053766;28;20104;-61
2022/09/01 00:51:06;;;;;;;16.85;9.98;;;15.50;90.30;;;;;;5053836;28;20377;-61
2022/09/01 00:53:32;;;;;;;14.80;9.75;;;15.50;90.30;;;;;;5053803;28;20494;-61
2022/09/01 00:55:58;;;;;;;15.10;9.57;;;15.50;90.80;;;;;;5052625;28;20045;-60
2022/09/01 00:58:25;;;;;;;16.35;9.52;;;15.50;90.70;;;;;;5053609;28;20033;-57
2022/09/01 01:00:52;;;;;;;15.18;9.70;;;15.50;90.60;;;;;;5053766;28;20494;-59
2022/09/01 01:03:19;;;;;;;16.42;10.13;;;15.50;90.50;;;;;;5053740;28;20029;-56
2022/09/01 01:05:53;;;;;;;16.77;9.35;;;15.50;91.00;;;;;;5052144;28;20036;-60
2022/09/01 01:08:33;;;;;;;15.00;9.30;;;15.50;91.40;;;;;;5053134;28;20540;-59
2022/09/01 01:11:08;;;;;;;15.88;9.30;;;15.50;91.00;;;;;;5054694;28;20025;-59
2022/09/01 01:13:54;;;;;;;15.50;9.38;;;15.40;91.60;;;;;;5053626;28;20025;-61
2022/09/01 01:16:23;;;;;;;18.05;9.48;;;15.40;91.90;;;;;;5053827;28;20032;-61
2022/09/01 01:18:49;;;;;;;14.95;9.35;;;15.30;91.80;;;;;;5053229;28;20100;-59
2022/09/01 01:24:24;;;;;;;15.60;10.05;;;15.20;92.40;;;;;;5053987;28;20027;-62
2022/09/01 01:26:51;;;;;;;18.80;9.07;;;;;;;;;;5052108;28;20086;-60
2022/09/01 01:29:17;;;;;;;17.50;9.27;;;;;;;;;;5053243;28;20048;-58
2022/09/01 01:31:46;;;;;;;15.30;9.35;;;;;;;;;;5051981;28;20466;-59
2022/09/01 01:34:12;;;;;;;17.27;9.57;;;;;;;;;;5053405;28;20017;-61
2022/09/01 01:36:38;;;;;;;16.27;9.43;;;;;;;;;;5053414;28;20029;-60
2022/09/01 01:39:12;;;;;;;15.60;9.52;;;;;;;;;;5053421;28;20032;-62
2022/09/01 01:41:44;;;;;;;16.23;9.20;;;;;;;;;;5054394;28;20029;-60
2022/09/01 01:44:11;;;;;;;16.92;9.30;;;;;;;;;;5053194;28;20104;-59
2022/09/01 01:46:41;;;;;;;14.90;9.60;;;;;;;;;;5053198;28;20025;-60
2022/09/01 01:49:07;;;;;;;14.55;9.38;;;;;;;;;;5052730;28;20087;-61
2022/09/01 01:51:33;;;;;;;16.45;9.60;;;;;;;;;;5052555;28;20029;-61
2022/09/01 01:54:04;;;;;;;14.50;9.20;;;;;;;;;;5052829;28;20041;-61
2022/09/01 01:56:31;;;;;;;14.48;9.32;;;;;;;;;;5051415;28;20029;-61
2022/09/01 01:58:58;;;;;;;16.23;9.43;;;;;;;;;;5052884;28;20049;-58
2022/09/01 02:01:27;;;;;;;15.27;9.38;;;;;;;;;;5053020;28;20094;-60
2022/09/01 02:03:54;;;;;;;14.73;10.10;;;;;;;;;;5053711;28;20098;-62
2022/09/01 02:06:23;;;;;;;16.05;9.60;;;;;;;;;;5054004;28;20029;-62
2022/09/01 02:08:51;;;;;;;15.57;9.90;;;;;;;;;;5052262;28;20032;-61
2022/09/01 02:11:17;;;;;;;14.80;9.50;;;;;;;;;;5052209;28;20021;-62
2022/09/01 02:13:43;;;;;;;16.38;9.57;;;;;;;;;;5052219;28;20025;-60
2022/09/01 02:16:13;;;;;;;17.00;9.80;;;;;;;;;;5052179;28;20044;-63
2022/09/01 02:18:41;;;;;;;14.65;9.35;;;;;;;;;;5052148;28;20020;-62
2022/09/01 02:21:08;;;;;;;;;;;;;;;;;;5052546;28;20021;-62
2022/09/01 02:23:35;;;;;;;15.65;9.98;;;;;;;;;;5052052;28;20340;-62
2022/09/01 02:26:01;;;;;;;14.38;9.50;;;;;;;;;;5050775;28;20036;-62
2022/09/01 02:28:30;;;;;;;16.45;9.85;;;;;;;;;;5051831;28;20493;-61
2022/09/01 02:30:58;;;;;;;15.82;9.35;;;;;;;;;;5051890;28;20025;-61
2022/09/01 02:33:24;;;;;;;15.05;10.10;;;;;;;;;;5050768;28;20044;-62
2022/09/01 02:35:52;;;;;;;17.00;9.70;;;;;;;;;;5050678;28;20151;-62
2022/09/01 02:38:19;;;;;;;15.80;9.75;;;;;;;;;;5050423;28;20033;-63
2022/09/01 02:40:46;;;;;;;14.95;9.32;;;;;;;;;;5051873;28;20032;-62
2022/09/01 02:43:13;;;;;;;16.77;9.50;;;;;;;;;;5051489;28;20162;-57
2022/09/01 02:45:43;;;;;;;16.05;9.10;;;;;;;;;;5050479;28;20052;-62
2022/09/01 02:48:10;;;;;;;14.75;9.57;;;;;;;;;;5051522;28;20474;-62
2022/09/01 02:50:37;;;;;;;16.20;9.52;;;;;;;;;;5051770;28;20068;-62
2022/09/01 02:53:05;;;;;;;15.63;9.30;;;;;;;;;;5052364;28;20032;-61
2022/09/01 02:55:31;;;;;;;15.18;9.63;;;;;;;;;;5053316;28;20032;-61
2022/09/01 02:57:57;;;;;;;16.13;9.60;;;;;;;;;;5051504;28;20029;-62
2022/09/01 03:00:34;;;;;;;16.45;9.60;;;;;;;;;;5051753;28;20029;-62
2022/09/01 03:03:01;;;;;;;15.30;9.52;;;;;;;;;;5051567;28;20025;-63
2022/09/01 03:05:28;;;;;;;14.27;9.55;;;;;;;;;;5054539;28;20551;-63
2022/09/01 03:07:58;;;;;;;14.85;9.77;;;;;;;;;;5055518;28;20582;-62
2022/09/01 03:10:29;;;;;;;14.07;9.15;;;;;;;;;;5055625;28;20035;-62
2022/09/01 03:12:55;;;;;;;15.10;9.50;;;;;;;;;;5055663;28;20027;-62
2022/09/01 03:15:22;;;;;;;14.50;9.48;;;;;;;;;;5055794;28;20455;-63
2022/09/01 03:17:48;;;;;;;16.02;9.60;;;;;;;;;;5055419;28;20035;-62
2022/09/01 03:20:15;;;;;;;14.52;9.60;;;;;;;;;;5055604;28;20021;-62
2022/09/01 03:22:43;;;;;;;14.90;9.30;;;;;;;;;;5054083;28;20082;-59
2022/09/01 03:25:09;;;;;;;15.18;9.30;;;;;;;;;;5055271;28;20074;-59
2022/09/01 03:27:35;;;;;;;15.65;9.02;;;;;;;;;;5054843;28;20497;-60
2022/09/01 03:30:01;;;;;;;16.20;9.43;;;;;;;;;;5055318;28;20017;-61
2022/09/01 03:32:28;;;;;;;14.95;9.65;;;;;;;;;;5053695;28;20029;-62
2022/09/01 03:34:56;;;;;;;15.82;9.88;;;;;;;;;;5055261;28;20025;-62
2022/09/01 03:37:22;;;;;;;17.63;9.43;;;;;;;;;;5054896;28;20035;-62
2022/09/01 03:39:48;;;;;;;15.82;9.40;;;;;;;;;;5054167;28;20124;-61
2022/09/01 03:42:29;;;;;;;16.02;9.32;;;;;;;;;;5054934;28;20047;-62
2022/09/01 03:44:56;;;;;;;15.70;9.40;;;;;;;;;;5055086;28;20607;-61
2022/09/01 03:47:23;;;;;;;16.83;9.45;;;;;;;;;;5054729;28;20091;-63
2022/09/01 03:49:49;;;;;;;15.73;9.52;;;;;;;;;;5054997;28;20033;-61
2022/09/01 03:52:16;;;;;;;17.58;9.52;;;;;;;;;;5054715;28;20448;-62
2022/09/01 03:54:42;;;;;;;16.35;9.40;;;;;;;;;;5053758;28;20070;-62
2022/09/01 03:57:09;;;;;;;15.90;9.30;;;;;;;;;;5054683;28;20029;-60
2022/09/01 03:59:35;;;;;;;15.73;9.57;;;;;;;;;;5054610;28;20052;-62
2022/09/01 04:02:01;;;;;;;17.13;10.13;;;;;;;;;;5054605;28;20052;-62
2022/09/01 04:04:31;;;;;;;14.55;9.52;;;;;;;;;;5053426;28;20075;-60
2022/09/01 04:06:59;;;;;;;16.98;9.50;;;;;;;;;;5054292;28;20037;-59
2022/09/01 04:09:25;;;;;;;16.05;9.93;;;;;;;;;;5052826;28;20058;-62
2022/09/01 04:11:52;;;;;;;15.45;9.63;;;;;;;;;;5053594;28;20052;-62
2022/09/01 04:14:18;;;;;;;14.93;9.40;;;;;;;;;;5054970;28;20021;-63
2022/09/01 04:19:35;;;;;;;15.73;9.80;;;;;;;;;;5054321;28;20097;-63
2022/09/01 04:22:02;;;;;;;17.20;9.88;;;;;;;;;;5054669;28;20389;-62
2022/09/01 04:24:30;;;;;;;15.80;9.63;;;;;;;;;;5054415;28;20034;-60
2022/09/01 04:26:57;;;;;;;;;;;;;;;;;;5056841;28;20089;-62
2022/09/01 04:29:27;;;;;;;15.75;9.60;;;;;;;;;;5053661;28;19911;-59
2022/09/01 04:31:54;;;;;;;15.95;9.70;;;;;;;;;;5053285;28;20499;-60
2022/09/01 04:34:21;;;;;;;15.43;9.93;;;;;;;;;;5050095;28;20083;-62
2022/09/01 04:36:47;;;;;;;15.52;10.32;;;;;;;;;;5053806;28;20465;-63
2022/09/01 04:39:13;;;;;;;15.90;10.43;;;;;;;;;;5053429;28;20029;-64
2022/09/01 04:41:48;;;;;;;19.55;10.73;;;;;;;;;;5053352;28;20052;-63
2022/09/01 04:44:17;;;;;;;16.58;10.57;;;;;;;;;;5053650;28;20068;-63
2022/09/01 04:46:47;;;;;;;17.55;10.10;;;;;;;;;;5053732;28;20036;-62
2022/09/01 04:49:18;;;;;;;15.23;9.85;;;;;;;;;;5053266;28;20028;-62
2022/09/01 04:51:45;;;;;;;15.65;9.57;;;;;;;;;;5052208;28;20389;-61
2022/09/01 04:54:13;;;;;;;15.52;9.55;;;;;;;;;;5053366;28;20033;-62
2022/09/01 04:56:39;;;;;;;15.73;9.68;;;;;;;;;;5053011;28;20552;-62
2022/09/01 04:59:06;;;;;;;17.02;9.90;;;;;;;;;;5053100;28;20477;-62
2022/09/01 05:01:41;;;;;;;16.73;9.80;;;;;;;;;;5053250;28;20115;-63
2022/09/01 05:04:08;;;;;;;16.83;9.55;;;;;;;;;;5052975;28;20063;-62
2022/09/01 05:06:38;;;;;;;18.42;9.85;;;;;;;;;;5052764;28;20473;-63
2022/09/01 05:09:04;;;;;;;14.57;9.25;;;;;;;;;;5052638;28;20397;-63
2022/09/01 05:11:30;;;;;;;15.82;9.80;;;;;;;;;;5053038;28;20059;-63
2022/09/01 05:13:56;;;;;;;16.73;10.07;;;;;;;;;;5051602;28;20497;-63
2022/09/01 05:16:26;;;;;;;17.13;11.40;;;;;;;;;;5053014;28;20120;-62
2022/09/01 05:18:53;;;;;;;18.50;11.55;;;;;;;;;;5052475;28;20029;-63
2022/09/01 05:21:21;;;;;;;20.60;13.20;;;;;;;;;;5052754;28;20094;-59
2022/09/01 05:23:50;;;;;;;18.73;10.77;;;;;;;;;;5052613;28;20044;-62
2022/09/01 05:26:26;;;;;;;26.88;12.65;;;;;;;;;;5052280;28;20100;-60
2022/09/01 05:28:54;;;;;;;19.15;11.07;;;;;;;;;;5050686;28;20043;-61
2022/09/01 05:31:20;;;;;;;17.42;10.90;;;;;;;;;;5052416;28;20051;-63
2022/09/01 05:33:48;;;;;;;17.25;11.05;;;;;;;;;;5052163;28;20465;-62
2022/09/01 05:36:16;;;;;;;19.20;12.25;;;;;;;;;;5052617;28;20051;-63
2022/09/01 05:38:43;;;;;;;18.52;11.43;;;;;;;;;;5052514;28;20628;-63
2022/09/01 05:41:13;;;;;;;20.30;11.18;;;;;;;;;;5050861;28;20115;-61
2022/09/01 05:43:45;;;;;;;16.30;10.52;;;;;;;;;;5072464;22;20083;-59
2022/09/01 05:46:11;;;;;;;17.60;10.25;;;;;;;;;;5051990;28;20108;-61
2022/09/01 05:48:38;;;;;;;17.42;10.88;;;;;;;;;;5051097;28;20111;-57
2022/09/01 05:51:05;;;;;;;18.65;10.50;;;;;;;;;;5052012;28;20021;-61
2022/09/01 05:53:32;;;;;;;19.30;10.88;;;;;;;;;;5051871;28;20021;-62
2022/09/01 05:55:59;;;;;;;19.10;10.52;;;;;;;;;;5052124;28;20124;-58
2022/09/01 05:58:26;;;;;;;15.98;10.00;;;;;;;;;;5050799;28;20083;-62
2022/09/01 06:00:54;;;;;;;18.08;10.32;;;;;;;;;;5052023;28;20032;-60
2022/09/01 06:03:21;;;;;;;16.17;10.07;;;;;;;;;;5050326;28;20029;-60
2022/09/01 06:05:51;;;;;;;17.90;10.30;;;;;;;;;;5051904;28;20264;-58
2022/09/01 06:08:18;;;;;;;20.95;12.13;;;;;;;;;;5051222;28;20171;-58
2022/09/01 06:10:44;;;;;;;20.63;11.25;;;;;;;;;;5051290;28;20397;-60
2022/09/01 06:13:14;;;;;;;19.88;11.65;;;;;;;;;;5051563;28;20139;-60
2022/09/01 06:15:41;;;;;;;18.27;11.05;;;;;;;;;;5051736;28;20025;-61
2022/09/01 06:18:10;;;;;;;21.63;10.75;;;;;;;;;;5051384;28;20017;-61
2022/09/01 06:20:39;;;;;;;22.20;11.07;;;;;;;;;;5051567;28;20053;-62
2022/09/01 06:23:05;;;;;;;20.33;10.70;;;;;;;;;;5051361;28;20029;-57
2022/09/01 06:25:31;;;;;;;17.00;10.60;;;;;;;;;;5051250;28;20032;-59
2022/09/01 06:27:59;;;;;;;16.88;10.73;;;;;;;;;;5050900;28;20025;-58
2022/09/01 06:30:25;;;;;;;17.52;11.68;;;;;;;;;;5051015;28;20025;-60
2022/09/01 06:32:52;;;;;;;20.40;11.18;;;;;;;;;;5051028;28;20087;-57
2022/09/01 06:35:18;;;;;;;17.27;11.98;;;;;;;;;;5051261;28;20029;-62
2022/09/01 06:37:46;;;;;;;17.55;10.82;;;;;;;;;;5049842;28;20051;-60
2022/09/01 06:40:16;;;;;;;19.40;10.70;;;;;;;;;;5051460;28;20052;-58
2022/09/01 06:42:51;;;;;;;15.73;10.40;;;;;;;;;;5051139;28;20152;-59
2022/09/01 06:45:19;;;;;;;16.38;10.13;;;;;;;;;;5051386;28;20068;-62
2022/09/01 06:47:46;;;;;;;15.93;10.50;;;;;;;;;;5050890;28;20032;-56
2022/09/01 06:50:14;;;;;;;17.40;11.27;;;;;;;;;;5051371;28;20032;-57
2022/09/01 06:52:43;;;;;;;20.08;11.18;;;;;;;;;;5051299;28;20056;-61
2022/09/01 06:55:13;;;;;;;21.83;11.63;;;;;;;;;;5051659;28;20480;-60
2022/09/01 06:57:40;;;;;;;17.80;11.30;;;;;;;;;;5051068;28;20025;-61
2022/09/01 07:00:16;;;;;;;21.10;11.73;;;;;;;;;;5051420;28;20033;-59
2022/09/01 07:02:44;;;;;;;18.60;11.25;;;;;;;;;;5050201;28;20078;-59
2022/09/01 07:05:10;;;;;;;15.63;10.83;;;;;;;;;;5051208;28;20021;-60
2022/09/01 07:07:36;;;;;;;20.85;11.27;;;;;;;;;;5050961;28;20287;-61
2022/09/01 07:10:03;;;;;;;26.77;11.38;;;;;;;;;;5049650;28;20021;-61
2022/09/01 07:12:30;;;;;;;16.05;10.57;;;;;;;;;;5051070;28;20025;-59
2022/09/01 07:14:57;;;;;;;17.45;10.60;;;;;;;;;;5051269;28;20025;-61
2022/09/01 07:17:24;;;;;;;19.60;11.27;;;;;;;;;;5050814;28;20041;-60
2022/09/01 07:19:50;;;;;;;16.25;10.43;;;;;;;;;;5051136;28;20108;-61
2022/09/01 07:22:16;;;;;;;16.05;10.98;;;;;;;;;;5050890;28;20029;-60
2022/09/01 07:24:44;;;;;;;18.15;10.60;;;;;;;;;;5050922;28;20032;-63
2022/09/01 07:27:11;;;;;;;18.73;10.57;;;;;;;;;;5050840;28;20029;-59
2022/09/01 07:29:38;;;;;;;20.30;11.40;;;;;;;;;;5050673;28;20116;-63
2022/09/01 07:32:04;;;;;;;20.63;10.70;;;;;;;;;;5050830;28;20474;-59
2022/09/01 07:34:31;;;;;;;16.80;11.25;;;;;;;;;;5051345;28;20104;-64
2022/09/01 07:36:58;;;;;;;16.25;10.63;;;;;;;;;;5051013;28;20048;-62
2022/09/01 07:39:25;;;;;;;21.87;12.00;;;;;;;;;;5050808;28;20025;-64
2022/09/01 07:41:52;;;;;;;19.25;11.30;;;;;;;;;;5050888;28;20116;-63
2022/09/01 07:44:18;;;;;;;15.50;10.55;;;;;;;;;;5049520;28;20413;-64
2022/09/01 07:46:48;;;;;;;16.58;10.95;;;;;;;;;;5049382;28;20029;-62
2022/09/01 07:49:15;;;;;;;16.45;11.13;;;;;;;;;;5050843;28;20535;-63
2022/09/01 07:51:42;;;;;;;15.80;10.98;;;;;;;;;;5054899;28;20119;-63
2022/09/01 07:54:12;;;;;;;16.45;11.02;;;;;;;;;;5055693;28;20027;-63
2022/09/01 07:56:40;;;;;;;16.35;10.65;;;;;;;;;;5055401;28;20444;-64
2022/09/01 07:59:06;;;;;;;18.63;11.65;;;;;;;;;;5054749;28;20099;-61
2022/09/01 08:01:32;;;;;;;16.98;10.60;;;;;;;;;;5053818;28;20021;-62
2022/09/01 08:04:00;;;;;;;17.40;10.82;;;;;;;;;;5054030;28;20009;-63
2022/09/01 08:06:27;;;;;;;15.50;10.65;;;;;;;;;;5053670;28;20021;-64
2022/09/01 08:08:55;;;;;;;16.13;11.20;;;;;;;;;;5053349;28;20029;-62
2022/09/01 08:11:23;;;;;;;24.40;11.37;;;;;;;;;;5052500;28;20389;-63
2022/09/01 08:13:49;;;;;;;;;;;;;;;;;;5054158;28;20020;-60
2022/09/01 08:16:15;;;;;;;19.10;10.93;;;;;;;;;;5052457;28;19904;-62
2022/09/01 08:18:43;;;;;;;19.45;10.80;;;;;;;;;;5053648;28;20025;-64
2022/09/01 08:21:11;;;;;;;18.15;10.93;;;;;;;;;;5053579;28;20025;-61
2022/09/01 08:23:37;;;;;;;17.98;11.45;;;;;;;;;;5053227;28;20028;-63
2022/09/01 08:26:07;;;;;;;17.05;11.13;;;;;;;;;;5053515;28;20047;-65
2022/09/01 08:28:33;;;;;;;16.85;10.88;;;;;;;;;;5051999;28;20055;-64
2022/09/01 08:30:59;;;;;;;16.08;11.30;;;;;;;;;;5053905;28;20025;-64
2022/09/01 08:33:26;;;;;;;16.40;11.00;;;;;;;;;;5053833;28;20568;-64
2022/09/01 08:35:52;;;;;;;15.85;10.95;;;;;;;;;;5053597;28;20024;-64
2022/09/01 08:38:19;;;;;;;17.48;10.93;;;;;;;;;;5053469;28;20021;-64
2022/09/01 08:40:50;;;;;;;17.15;11.00;;;;;;;;;;5053886;28;20021;-62
2022/09/01 08:43:24;;;;;;;15.90;10.98;;;;;;;;;;5053222;28;20071;-64
2022/09/01 08:45:53;;;;;;;16.52;11.23;;;;;;;;;;5052805;28;20036;-63
2022/09/01 08:48:27;;;;;;;17.50;11.80;;;;;;;;;;5050305;28;20025;-64
2022/09/01 08:50:56;;;;;;;17.27;11.57;;;;;;;;;;5050689;28;20013;-63
2022/09/01 08:53:22;;;;;;;16.30;11.45;;;;;;;;;;5052502;28;20728;-63
2022/09/01 08:55:51;;;;;;;16.63;11.30;;;;;;;;;;5052029;28;20057;-61
2022/09/01 08:58:18;;;;;;;18.83;10.82;;;;;;;;;;5053134;28;20501;-63
2022/09/01 09:00:45;;;;;;;16.67;11.00;;;;;;;;;;5053391;28;20033;-60
2022/09/01 09:03:30;;;;;;;17.20;10.85;;;;;;;;;;5052509;28;20035;-61
2022/09/01 09:06:09;;;;;;;15.70;10.40;;;;;;;;;;5032142;28;20040;-62
2022/09/01 09:08:54;;;;;;;15.70;10.90;;;;;;;;;;5032922;28;20525;-64
2022/09/01 09:11:39;;;;;;;16.58;10.55;;;;;;;;;;5031904;28;20037;-65
2022/09/01 09:14:22;;;;;;;16.52;10.90;;;;;;;;;;5031537;28;20149;-64
2022/09/01 09:16:49;;;;;;;15.80;11.23;;;;;;;;;;5033096;28;20026;-62
2022/09/01 09:19:16;;;;;;;17.10;10.85;;;;;;;;;;5033197;28;20035;-63
2022/09/01 09:21:43;;;;;;;17.92;10.90;;;;;;;;;;5033199;28;20100;-64
2022/09/01 09:24:14;;;;;;;16.63;10.52;;;;;;;;;;5031963;28;20575;-63
2022/09/01 09:26:40;;;;;;;16.60;10.70;;;;;;;;;;5033405;28;20056;-64
2022/09/01 09:29:06;;;;;;;19.48;12.18;;;;;;;;;;5031755;28;20033;-63
2022/09/01 09:31:42;;;;;;;17.27;11.45;;;;;;;;;;5050084;28;20070;-63
2022/09/01 09:34:43;;;;;;;15.30;11.35;;;;;;;;;;5052837;28;20025;-63
2022/09/01 09:37:21;;;;;;;15.95;11.27;;;;;;;;;;5010620;28;20092;-64
2022/09/01 09:40:03;;;;;;;15.15;10.93;;;;;;;;;;5044024;28;20052;-62
2022/09/01 09:42:29;;;;;;;17.33;11.20;;;;;;;;;;5051866;28;20036;-65
2022/09/01 09:44:56;;;;;;;18.77;12.02;;;;;;;;;;5050822;28;20058;-62
2022/09/01 09:47:34;;;;;;;17.45;11.15;;;;;;;;;;5051368;28;20393;-56
2022/09/01 09:50:19;;;;;;;15.85;11.30;;;;;;;;;;5051021;28;20104;-59
2022/09/01 09:52:46;;;;;;;15.50;10.95;;;;;;;;;;5052147;28;20075;-59
2022/09/01 09:55:28;;;;;;;17.13;11.52;;;;;;;;;;5051581;28;20028;-57
2022/09/01 09:57:57;;;;;;;17.75;11.30;;;;;;;;;;5052063;28;20029;-54
2022/09/01 10:00:23;;;;;;;;;;;;;;;;;;5052579;28;20477;-54
2022/09/01 10:02:58;;;;;;;17.55;11.63;;;;;;;;;;5050546;28;20385;-56
2022/09/01 10:05:33;;;;;;;15.80;11.23;;;;;;;;;;5050738;28;20024;-58
2022/09/01 10:07:59;;;;;;;15.65;11.30;;;;;;;;;;5051303;28;20111;-58
2022/09/01 10:10:40;;;;;;;15.55;11.88;;;;;;;;;;5050621;28;20025;-60
2022/09/01 10:13:15;;;;;;;15.77;11.52;;;;;;;;;;5051284;28;20017;-59
2022/09/01 10:15:43;;;;;;;15.65;11.35;;;;;;;;;;5051101;28;20025;-59
2022/09/01 10:18:13;;;;;;;16.60;11.05;;;;;;;;;;5049956;28;20021;-61
2022/09/01 10:20:41;;;;;;;16.88;12.02;;;;;;;;;;5051850;28;20033;-59
2022/09/01 10:23:07;;;;;;;17.08;11.77;;;;;;;;;;5051692;28;20458;-60
2022/09/01 10:25:34;;;;;;;16.85;11.15;;;;;;;;;;5051852;28;20450;-60
2022/09/01 10:28:12;;;;;;;15.77;10.70;;;;;;;;;;5050190;28;20114;-59
2022/09/01 10:30:41;;;;;;;16.83;11.40;;;;;;;;;;5050920;28;20027;-59
2022/09/01 10:33:08;;;;;;;18.63;11.60;;;;;;;;;;5051191;28;20049;-57
2022/09/01 10:35:36;;;;;;;17.02;10.90;;;;;;;;;;5051363;28;20021;-60
2022/09/01 10:38:07;;;;;;;16.13;10.95;;;;;;;;;;5051259;28;20028;-55
2022/09/01 10:40:33;;;;;;;16.83;11.38;;;;;;;;;;5051092;28;20033;-58
2022/09/01 10:43:20;;;;;;;16.85;11.73;;;;;;;;;;5049959;28;20478;-60
2022/09/01 10:45:46;;;;;;;15.52;11.18;;;;;;;;;;5050967;28;20033;-60
2022/09/01 10:48:24;;;;;;;15.27;11.10;;;;;;;;;;5051005;28;20029;-59
2022/09/01 10:50:52;;;;;;;19.65;11.40;;;;;;;;;;5051114;28;20033;-58
2022/09/01 10:53:33;;;;;;;17.77;11.30;;;;;;;;;;5051110;28;20018;-60
2022/09/01 10:56:02;;;;;;;18.50;11.40;;;;;;;;;;5049848;28;20097;-60
2022/09/01 10:58:48;;;;;;;16.38;11.18;;;;;;;;;;5051319;28;20040;-60
2022/09/01 11:01:14;;;;;;;16.77;11.05;;;;;;;;;;5039435;28;20029;-60
2022/09/01 11:03:50;;;;;;;15.98;11.70;;;;;;;;;;5050932;28;20032;-62
2022/09/01 11:06:35;;;;;;;16.73;12.02;;;;;;;;;;5051101;28;20028;-61
2022/09/01 11:09:04;;;;;;;14.90;10.75;;;;;;;;;;5051842;28;20045;-61
2022/09/01 11:11:41;;;;;;;15.90;10.68;;;;;;;;;;5053616;28;20032;-61
2022/09/01 11:14:21;;;;;;;16.55;11.45;;;;;;;;;;5053550;28;20025;-59
2022/09/01 11:17:06;;;;;;;16.00;11.32;;;;;;;;;;5053513;28;20446;-59
2022/09/01 11:19:44;;;;;;;19.98;12.07;;;;;;;;;;5051428;28;20315;-59
2022/09/01 11:22:13;;;;;;;16.23;11.40;;;;;;;;;;5051140;28;20040;-60
2022/09/01 11:24:40;;;;;;;17.38;11.70;;;;;;;;;;5051521;28;20021;-62
2022/09/01 11:27:06;;;;;;;18.00;11.82;;;;;;;;;;5054980;28;20057;-61
2022/09/01 11:29:50;;;;;;;15.98;11.10;;;;;;;;;;5057249;28;20021;-62
2022/09/01 11:32:17;;;;;;;17.17;11.98;;;;;;;;;;5075099;28;20100;-61
2022/09/01 11:34:45;;;;;;;17.30;12.00;;;;;;;;;;5066693;28;20060;-61
2022/09/01 11:37:11;;;;;;;;;;;;;;;;;;5055188;28;20029;-60
2022/09/01 11:39:37;;;;;;;16.20;11.30;;;;;;;;;;5054940;28;19905;-60
2022/09/01 11:42:07;;;;;;;16.67;12.00;;;;;;;;;;5054472;28;20474;-63
2022/09/01 11:44:36;;;;;;;16.30;10.90;;;;;;;;;;4718755;22;9999631;-65
2022/09/01 11:47:07;;;;;;;16.23;11.40;;;;;;;;;;5047702;28;20122;-64
2022/09/01 11:49:34;;;;;;;16.33;11.70;;;;;;;;;;5051338;28;20021;-65
2022/09/01 11:52:01;;;;;;;18.25;12.32;;;;;;;;;;5050610;28;20032;-63
2022/09/01 11:54:29;;;;;;;15.40;11.55;;;;;;;;;;5040217;28;20072;-64
2022/09/01 11:56:55;;;;;;;15.65;11.88;;;;;;;;;;5051856;28;20029;-64
2022/09/01 11:59:32;;;;;;;15.45;11.73;;;;;;;;;;5052235;28;20041;-68
2022/09/01 12:01:58;;;;;;;16.25;12.35;;;;;;;;;;5053086;28;20037;-65
2022/09/01 12:04:26;;;;;;;16.67;12.48;;;;;;;;;;5037510;28;20091;-64
2022/09/01 12:06:52;;;;;;;;;;;;;;;;;;5032434;28;20034;-64
2022/09/01 12:09:18;;;;;;;15.55;11.05;;;;;;;;;;5031838;28;20348;-63
2022/09/01 12:11:44;;;;;;;15.50;11.50;;;;;;;;;;5031683;28;20026;-65
2022/09/01 12:14:11;;;;;;;16.08;11.30;;;;;;;;;;5031571;28;20116;-66
2022/09/01 12:16:40;;;;;;;17.35;11.52;;;;;;;;;;5031377;28;20083;-63
2022/09/01 12:19:07;;;;;;;15.75;11.00;;;;;;;;;;5031270;28;20497;-63
2022/09/01 12:21:41;;;;;;;20.17;11.18;;;;;;;;;;5046055;28;20401;-63
2022/09/01 12:24:10;;;;;;;18.65;11.27;;;;;;;;;;5049891;28;20641;-62
2022/09/01 12:26:37;;;;;;;16.45;11.50;;;;;;;;;;5050750;28;20044;-63
2022/09/01 12:29:04;;;;;;;17.75;13.30;;;;;;;;;;5050559;28;20056;-64
2022/09/01 12:31:30;;;;;;;17.48;12.02;;;;;;;;;;5051033;28;20203;-63
2022/09/01 12:33:56;;;;;;;16.67;11.00;;;;;;;;;;5048074;28;20033;-63
2022/09/01 12:36:30;;;;;;;15.00;11.00;;;;;;;;;;5030440;28;20021;-62
2022/09/01 12:38:57;;;;;;;15.30;11.20;;;;;;;;;;5030761;28;20022;-63
2022/09/01 12:41:25;;;;;;;15.98;11.10;;;;;;;;;;5031158;28;20099;-64
2022/09/01 12:43:51;;;;;;;15.68;10.85;;;;;;;;;;5029424;28;20119;-63
2022/09/01 12:46:36;;;;;;;16.27;12.60;;;;;;;;;;5030397;28;20116;-64
2022/09/01 12:49:23;;;;;;;17.15;11.13;;;;;;;;;;5030643;28;20105;-61
2022/09/01 12:51:51;;;;;;;18.30;12.30;;;;;;;;;;5030471;28;20509;-62
2022/09/01 12:54:24;;;;;;;16.83;11.70;;;;;;;;;;5033644;28;20021;-62
2022/09/01 12:56:51;;;;;;;18.15;12.55;;;;;;;;;;5050581;28;20044;-62
2022/09/01 12:59:22;;;;;;;18.95;11.77;;;;;;;;;;5051281;28;20053;-63
2022/09/01 13:01:48;;;;;;;16.15;11.63;;;;;;;;;;5051609;28;20024;-62
2022/09/01 13:04:23;;;;;;;16.23;11.45;;;;;;;;;;5052304;28;20027;-62
2022/09/01 13:06:50;;;;;;;16.27;11.05;;;;;;;;;;5052989;28;20033;-62
2022/09/01 13:09:16;;;;;;;15.60;11.90;;;;;;;;;;5052825;28;20028;-60
2022/09/01 13:11:43;;;;;;;15.75;11.43;;;;;;;;;;5052930;28;20021;-63
2022/09/01 13:14:09;;;;;;;16.75;12.40;;;;;;;;;;5053571;28;20041;-62
2022/09/01 13:16:36;;;;;;;15.50;11.63;;;;;;;;;;5052818;28;20029;-61
2022/09/01 13:19:02;;;;;;;15.60;11.90;;;;;;;;;;5052521;28;20031;-61
2022/09/01 13:21:29;;;;;;;16.20;11.50;;;;;;;;;;5052451;28;20099;-61
2022/09/01 13:23:55;;;;;;;15.70;11.10;;;;;;;;;;5052421;28;20036;-62
2022/09/01 13:26:21;;;;;;;15.30;11.20;;;;;;;;;;5052420;28;20139;-61
2022/09/01 13:28:47;;;;;;;15.30;11.68;;;;;;;;;;5052118;28;20485;-62
2022/09/01 13:31:13;;;;;;;18.63;11.60;;;;;;;;;;5052741;28;20025;-59
2022/09/01 13:33:40;;;;;;;17.63;11.75;;;;;;;;;;5052499;28;20068;-59
2022/09/01 13:36:06;;;;;;;18.20;11.40;;;;;;;;;;5033389;28;20033;-60
2022/09/01 13:38:32;;;;;;;16.63;11.43;;;;;;;;;;5031628;28;20026;-57
2022/09/01 13:41:00;;;;;;;15.65;10.60;;;;;;;;;;4682329;28;9999986;-60
2022/09/01 13:43:26;;;;;;;15.70;10.68;;;;;;;;;;5029170;28;20060;-60
2022/09/01 13:45:52;;;;;;;16.00;11.07;;;;;;;;;;5029527;28;20047;-59
2022/09/01 13:48:18;;;;;;;16.52;11.25;;;;;;;;;;5027635;28;20029;-60
2022/09/01 13:50:45;;;;;;;15.18;11.45;;;;;;;;;;5029034;28;20084;-59
2022/09/01 13:53:12;;;;;;;15.10;11.03;;;;;;;;;;5029309;28;20025;-61
2022/09/01 13:55:39;;;;;;;15.80;11.48;;;;;;;;;;5043717;28;20036;-59
2022/09/01 13:58:05;;;;;;;16.30;11.65;;;;;;;;;;5047759;28;20500;-60
2022/09/01 14:00:39;;;;;;;19.02;12.48;;;;;;;;;;5049162;28;20036;-60
2022/09/01 14:03:07;;;;;;;15.55;11.70;;;;;;;;;;5050710;28;20143;-60
2022/09/01 14:05:35;;;;;;;17.00;11.30;;;;;;;;;;5051775;28;20108;-60
2022/09/01 14:08:01;;;;;;;16.45;12.48;;;;;;;;;;5050269;28;20028;-58
2022/09/01 14:10:28;;;;;;;16.50;12.00;;;;;;;;;;5048855;28;20700;-59
2022/09/01 14:12:54;;;;;;;15.75;11.75;;;;;;;;;;5049667;28;20025;-60
2022/09/01 14:15:21;;;;;;;15.68;11.45;;;;;;;;;;5048785;28;20029;-61
2022/09/01 14:17:48;;;;;;;17.90;11.38;;;;;;;;;;5048659;28;20033;-62
2022/09/01 14:20:17;;;;;;;17.33;11.38;;;;;;;;;;5048598;28;20029;-60
2022/09/01 14:22:44;;;;;;;16.52;10.95;;;;;;;;;;5048465;28;20040;-62
2022/09/01 14:25:11;;;;;;;17.47;11.70;;;;;;;;;;5047182;28;20020;-58
2022/09/01 14:27:37;;;;;;;15.07;11.40;;;;;;;;;;5048109;28;20079;-60